Time;durP1;ratioP1;P1;durP2;ratioP2;P2;SDS_P1;SDS_P2;PMS_P1;PMS_P2;Temp;Humidity;BMP_temperature;BMP_pressure;BME280_temperature;BME280_humidity;BME280_pressure;Samples;Min_cycle;Max_cycle;Signal;HPM_P1;HPM_P2
2022/10/16 00:00:24;;;;;;;1.35;0.40;;;;;;;;;;5129861;27;20043;-73
2022/10/16 00:02:55;;;;;;;3.03;0.55;;;;;;;;;;5129612;27;20490;-73
2022/10/16 00:05:25;;;;;;;0.93;0.30;;;;;;;;;;5128256;27;20066;-72
2022/10/16 00:07:54;;;;;;;4.55;1.52;;;;;;;;;;5128717;27;20063;-72
2022/10/16 00:10:24;;;;;;;0.77;0.43;;;;;;;;;;5129389;27;20058;-72
2022/10/16 00:12:54;;;;;;;0.57;0.40;;;;;;;;;;5129000;27;20073;-72
2022/10/16 00:15:24;;;;;;;3.60;0.40;;;;;;;;;;5129516;27;20066;-71
2022/10/16 00:17:54;;;;;;;1.27;0.40;;;;;;;;;;5129155;27;20414;-72
2022/10/16 00:20:24;;;;;;;0.90;0.35;;;;;;;;;;5129111;27;20441;-74
2022/10/16 00:22:53;;;;;;;2.42;0.30;;;;;;;;;;5127201;27;20529;-73
2022/10/16 00:25:24;;;;;;;0.32;0.32;;;;;;;;;;5128494;27;20046;-71
2022/10/16 00:27:54;;;;;;;2.30;0.50;;;;;;;;;;5129336;27;20054;-73
2022/10/16 00:30:26;;;;;;;0.30;0.20;;;;;;;;;;5129071;27;20047;-71
2022/10/16 00:32:57;;;;;;;2.90;0.75;;;;;;;;;;5128990;27;20043;-73
2022/10/16 00:35:27;;;;;;;1.65;0.63;;;;;;;;;;5127934;27;20039;-72
2022/10/16 00:37:57;;;;;;;0.70;0.55;;;;;;;;;;5128083;27;20097;-73
2022/10/16 00:40:28;;;;;;;0.30;0.22;;;;;;;;;;5128334;27;20543;-73
2022/10/16 00:42:58;;;;;;;0.63;0.30;;;;;;;;;;5127193;27;20055;-71
2022/10/16 00:45:28;;;;;;;2.75;0.57;;;;;;;;;;5128574;27;20062;-73
2022/10/16 00:47:57;;;;;;;0.38;0.20;;;;;;;;;;5127842;27;20039;-72
2022/10/16 00:50:33;;;;;;;0.32;0.25;;;;;;;;;;5125482;27;20054;-71
2022/10/16 00:53:03;;;;;;;2.50;0.22;;;;;;;;;;5127752;27;20054;-74
2022/10/16 00:55:33;;;;;;;0.43;0.43;;;;;;;;;;5127652;27;20047;-70
2022/10/16 00:58:10;;;;;;;1.80;0.50;;;;;;;;;;5125292;27;20047;-73
2022/10/16 01:00:40;;;;;;;0.50;0.47;;;;;;;;;;5127729;27;20050;-72
2022/10/16 01:03:27;;;;;;;1.67;0.20;;;;;;;;;;5127016;27;20054;-72
2022/10/16 01:06:35;;;;;;;3.55;0.40;;;;;;;;;;5126161;27;20043;-72
2022/10/16 01:09:20;;;;;;;0.22;0.22;;;;;;;;;;5124090;27;20043;-76
2022/10/16 01:11:59;;;;;;;2.55;0.50;;;;;;;;;;5125935;27;20498;-71
2022/10/16 01:14:42;;;;;;;0.45;0.25;;;;;;;;;;5125103;27;20043;-70
2022/10/16 01:17:13;;;;;;;2.85;0.55;;;;;;;;;;5127490;27;20062;-71
2022/10/16 01:19:58;;;;;;;1.55;0.32;;;;;;;;;;5127156;27;20047;-72
2022/10/16 01:22:51;;;;;;;0.57;0.47;;;;;;;;;;5126168;27;20062;-73
2022/10/16 01:25:46;;;;;;;1.30;0.57;;;;;;;;;;5125180;27;20494;-71
2022/10/16 01:28:19;;;;;;;0.47;0.20;;;;;;;;;;5085952;27;20058;-72
2022/10/16 01:30:53;;;;;;;0.73;0.20;;;;;;;;;;5126821;27;20043;-71
2022/10/16 01:33:36;;;;;;;1.67;0.63;;;;;;;;;;5126801;27;20499;-70
2022/10/16 01:36:31;;;;;;;1.20;0.60;;;;;;;;;;5125999;27;20528;-72
2022/10/16 01:39:03;;;;;;;1.10;0.40;;;;;;;;;;5125369;27;20047;-71
2022/10/16 01:41:39;;;;;;;2.45;0.40;;;;;;;;;;5124594;27;20043;-70
2022/10/16 01:44:16;;;;;;;0.85;0.40;;;;;;;;;;5126928;27;20038;-73
2022/10/16 01:46:50;;;;;;;0.63;0.20;;;;;;;;;;5126873;27;20042;-71
2022/10/16 01:49:24;;;;;;;0.60;0.22;;;;;;;;;;5125317;27;20050;-73
2022/10/16 01:51:58;;;;;;;1.70;0.50;;;;;;;;;;5124484;27;20043;-72
2022/10/16 01:54:31;;;;;;;1.95;0.40;;;;;;;;;;5126023;27;20043;-72
2022/10/16 01:57:04;;;;;;;1.23;0.40;;;;;;;;;;5126665;27;20548;-70
2022/10/16 01:59:43;;;;;;;0.50;0.30;;;;;;;;;;5123986;27;20058;-71
2022/10/16 02:02:17;;;;;;;0.73;0.45;;;;;;;;;;5126663;27;20047;-75
2022/10/16 02:04:53;;;;;;;0.52;0.30;;;;;;;;;;5126130;27;20047;-73
2022/10/16 02:07:24;;;;;;;0.80;0.50;;;;;;;;;;5124119;27;20058;-73
2022/10/16 02:09:54;;;;;;;3.85;0.30;;;;;;;;;;5125401;27;20054;-71
2022/10/16 02:12:28;;;;;;;2.95;0.30;;;;;;;;;;5126090;27;20062;-71
2022/10/16 02:14:58;;;;;;;4.03;0.52;;;;;;;;;;5126617;27;20039;-73
2022/10/16 02:17:28;;;;;;;2.08;0.40;;;;;;;;;;5126263;28;20039;-72
2022/10/16 02:19:59;;;;;;;1.08;0.40;;;;;;;;;;5125488;28;20043;-72
2022/10/16 02:22:49;;;;;;;1.25;0.22;;;;;;;;;;5124073;28;20395;-70
2022/10/16 02:25:32;;;;;;;4.88;0.47;;;;;;;;;;5125202;28;20132;-73
2022/10/16 02:28:18;;;;;;;2.08;0.20;;;;;;;;;;5125648;28;20039;-71
2022/10/16 02:31:03;;;;;;;2.13;0.30;;;;;;;;;;5123711;28;20043;-73
2022/10/16 02:33:36;;;;;;;4.25;0.63;;;;;;;;;;5124628;28;20540;-74
2022/10/16 02:36:07;;;;;;;3.15;0.30;;;;;;;;;;5126189;28;20397;-74
2022/10/16 02:38:39;;;;;;;0.70;0.50;;;;;;;;;;5126387;28;20043;-73
2022/10/16 02:41:09;;;;;;;1.30;0.57;;;;;;;;;;5123939;28;20046;-74
2022/10/16 02:43:39;;;;;;;0.88;0.40;;;;;;;;;;5126265;28;20501;-71
2022/10/16 02:46:08;;;;;;;;;;;;;;;;;;5123908;28;20046;-72
2022/10/16 02:48:39;;;;;;;1.08;0.50;;;;;;;;;;5126084;27;19930;-74
2022/10/16 02:51:09;;;;;;;2.38;0.40;;;;;;;;;;5123998;28;20498;-74
2022/10/16 02:53:39;;;;;;;0.55;0.30;;;;;;;;;;5126593;28;20051;-73
2022/10/16 02:56:10;;;;;;;1.33;0.40;;;;;;;;;;5127008;28;20051;-73
2022/10/16 02:58:40;;;;;;;2.97;0.60;;;;;;;;;;5126859;28;20490;-73
2022/10/16 03:01:12;;;;;;;3.33;0.17;;;;;;;;;;5124411;28;20407;-74
2022/10/16 03:03:43;;;;;;;3.00;0.40;;;;;;;;;;5123115;28;20047;-73
2022/10/16 03:06:12;;;;;;;4.22;0.50;;;;;;;;;;5128897;27;20520;-71
2022/10/16 03:08:42;;;;;;;;;;;;;;;;;;5130319;27;20043;-71
2022/10/16 03:11:11;;;;;;;1.80;0.30;;;;;;;;;;5130496;27;19919;-73
2022/10/16 03:13:41;;;;;;;3.17;0.50;;;;;;;;;;5130919;27;20078;-73
2022/10/16 03:16:11;;;;;;;1.98;0.50;;;;;;;;;;5130041;27;20047;-74
2022/10/16 03:18:41;;;;;;;2.13;0.60;;;;;;;;;;5130252;27;20442;-72
2022/10/16 03:21:11;;;;;;;1.85;0.45;;;;;;;;;;5130287;27;20047;-74
2022/10/16 03:23:40;;;;;;;4.25;0.50;;;;;;;;;;5130627;27;20043;-71
2022/10/16 03:26:10;;;;;;;;;;;;;;;;;;5130950;27;20501;-72
2022/10/16 03:28:39;;;;;;;1.70;0.60;;;;;;;;;;5130083;27;19923;-75
2022/10/16 03:31:09;;;;;;;0.60;0.35;;;;;;;;;;5129626;27;20679;-73
2022/10/16 03:33:39;;;;;;;1.35;0.43;;;;;;;;;;5130000;27;20591;-72
2022/10/16 03:36:09;;;;;;;3.03;0.60;;;;;;;;;;5129215;27;20043;-73
2022/10/16 03:38:38;;;;;;;2.30;0.52;;;;;;;;;;5128390;27;20504;-74
2022/10/16 03:41:08;;;;;;;0.85;0.70;;;;;;;;;;5127094;27;20062;-74
2022/10/16 03:43:38;;;;;;;;;;;;;;;;;;5128309;27;20051;-73
2022/10/16 03:46:08;;;;;;;0.30;0.30;;;;;;;;;;5128299;27;19954;-72
2022/10/16 03:48:39;;;;;;;7.25;0.90;;;;;;;;;;5127205;27;21210;-71
2022/10/16 03:51:09;;;;;;;0.25;0.22;;;;;;;;;;5127018;27;20043;-73
2022/10/16 03:53:39;;;;;;;1.13;0.82;;;;;;;;;;5128490;27;20513;-74
2022/10/16 03:56:09;;;;;;;4.68;0.65;;;;;;;;;;5128625;27;20072;-72
2022/10/16 03:58:39;;;;;;;4.70;0.73;;;;;;;;;;5128784;27;20051;-71
2022/10/16 04:01:08;;;;;;;;;;;;;;;;;;5129618;27;20504;-73
2022/10/16 04:03:38;;;;;;;1.75;0.35;;;;;;;;;;5129910;27;20392;-73
2022/10/16 04:06:08;;;;;;;4.32;0.40;;;;;;;;;;5129620;27;20051;-71
2022/10/16 04:08:39;;;;;;;3.20;0.60;;;;;;;;;;5129574;27;20051;-72
2022/10/16 04:11:08;;;;;;;1.20;0.38;;;;;;;;;;5129767;27;20412;-72
2022/10/16 04:13:38;;;;;;;1.75;0.40;;;;;;;;;;5129255;27;20425;-73
2022/10/16 04:16:08;;;;;;;3.13;0.40;;;;;;;;;;5129477;27;20055;-71
2022/10/16 04:18:38;;;;;;;3.08;0.65;;;;;;;;;;5128739;27;20054;-70
2022/10/16 04:21:08;;;;;;;1.42;0.45;;;;;;;;;;5128878;27;20509;-72
2022/10/16 04:23:37;;;;;;;1.63;0.50;;;;;;;;;;5129700;27;20047;-72
2022/10/16 04:26:07;;;;;;;0.85;0.50;;;;;;;;;;5129083;27;20078;-72
2022/10/16 04:28:37;;;;;;;3.08;0.40;;;;;;;;;;5128955;27;20417;-71
2022/10/16 04:31:07;;;;;;;1.33;0.52;;;;;;;;;;5128487;27;20039;-72
2022/10/16 04:33:37;;;;;;;1.58;0.40;;;;;;;;;;5127316;27;20043;-71
2022/10/16 04:36:07;;;;;;;2.85;0.80;;;;;;;;;;5129140;27;20039;-73
2022/10/16 04:38:37;;;;;;;0.80;0.30;;;;;;;;;;5129012;27;20062;-73
2022/10/16 04:41:07;;;;;;;3.80;0.90;;;;;;;;;;5128790;27;20520;-72
2022/10/16 04:43:38;;;;;;;1.85;0.47;;;;;;;;;;5127902;27;20399;-71
2022/10/16 04:46:07;;;;;;;3.72;0.80;;;;;;;;;;5128561;27;20443;-73
2022/10/16 04:48:37;;;;;;;2.63;0.93;;;;;;;;;;5128785;27;20047;-74
2022/10/16 04:51:06;;;;;;;;;;;;;;;;;;5129458;27;20051;-73
2022/10/16 04:53:36;;;;;;;1.30;0.40;;;;;;;;;;5128920;27;19927;-74
2022/10/16 04:56:05;;;;;;;;;;;;;;;;;;5127958;27;20828;-72
2022/10/16 04:58:35;;;;;;;2.22;0.52;;;;;;;;;;5128433;27;19923;-73
2022/10/16 05:01:05;;;;;;;0.82;0.52;;;;;;;;;;5128843;27;20043;-74
2022/10/16 05:03:35;;;;;;;2.88;0.55;;;;;;;;;;5128576;27;20502;-72
2022/10/16 05:06:06;;;;;;;2.17;0.65;;;;;;;;;;5128864;27;20047;-74
2022/10/16 05:08:37;;;;;;;4.45;1.45;;;;;;;;;;5128558;27;20050;-71
2022/10/16 05:11:07;;;;;;;2.30;0.68;;;;;;;;;;5128088;27;20055;-75
2022/10/16 05:13:37;;;;;;;1.65;0.50;;;;;;;;;;5128103;27;20047;-73
2022/10/16 05:16:07;;;;;;;2.38;0.45;;;;;;;;;;5126077;27;20055;-74
2022/10/16 05:18:37;;;;;;;0.85;0.47;;;;;;;;;;5127905;27;20070;-74
2022/10/16 05:21:06;;;;;;;1.15;0.57;;;;;;;;;;5128170;27;20047;-74
2022/10/16 05:23:36;;;;;;;3.33;0.68;;;;;;;;;;5127848;27;20750;-75
2022/10/16 05:26:06;;;;;;;5.55;0.77;;;;;;;;;;5127750;27;20074;-71
2022/10/16 05:28:36;;;;;;;3.17;0.43;;;;;;;;;;5126887;27;20055;-72
2022/10/16 05:31:10;;;;;;;3.67;0.60;;;;;;;;;;5128002;27;20043;-71
2022/10/16 05:33:43;;;;;;;0.90;0.50;;;;;;;;;;5128373;27;20039;-72
2022/10/16 05:36:13;;;;;;;3.13;0.50;;;;;;;;;;5127856;27;20047;-74
2022/10/16 05:38:43;;;;;;;2.95;0.65;;;;;;;;;;5128040;27;20036;-73
2022/10/16 05:41:13;;;;;;;1.67;0.55;;;;;;;;;;5127292;27;20047;-72
2022/10/16 05:43:43;;;;;;;2.58;0.50;;;;;;;;;;5127563;27;20046;-73
2022/10/16 05:46:13;;;;;;;1.25;0.40;;;;;;;;;;5127922;27;20046;-72
2022/10/16 05:48:43;;;;;;;3.17;0.52;;;;;;;;;;5127323;27;20058;-74
2022/10/16 05:51:14;;;;;;;2.35;0.40;;;;;;;;;;5127922;27;20401;-74
2022/10/16 05:53:45;;;;;;;3.80;0.70;;;;;;;;;;5127548;27;20421;-73
2022/10/16 05:56:15;;;;;;;1.48;0.65;;;;;;;;;;5127089;27;20046;-74
2022/10/16 05:58:45;;;;;;;2.22;0.60;;;;;;;;;;5125878;27;20501;-72
2022/10/16 06:01:17;;;;;;;2.58;0.50;;;;;;;;;;5127752;27;20047;-73
2022/10/16 06:03:47;;;;;;;2.33;0.50;;;;;;;;;;5127347;27;20042;-74
2022/10/16 06:06:20;;;;;;;1.17;0.50;;;;;;;;;;5127387;27;20051;-72
2022/10/16 06:08:50;;;;;;;0.65;0.40;;;;;;;;;;5127122;27;20043;-73
2022/10/16 06:11:25;;;;;;;1.15;0.60;;;;;;;;;;5127357;27;20055;-74
2022/10/16 06:13:58;;;;;;;4.88;0.40;;;;;;;;;;5126337;27;20413;-73
2022/10/16 06:16:28;;;;;;;1.70;0.55;;;;;;;;;;5127138;27;20062;-72
2022/10/16 06:18:59;;;;;;;2.83;0.80;;;;;;;;;;5127572;27;20105;-73
2022/10/16 06:21:29;;;;;;;1.65;0.68;;;;;;;;;;5127283;28;20051;-71
2022/10/16 06:23:59;;;;;;;2.08;0.65;;;;;;;;;;5126932;28;20055;-73
2022/10/16 06:26:30;;;;;;;3.42;0.80;;;;;;;;;;5127751;28;20050;-71
2022/10/16 06:29:01;;;;;;;1.23;0.47;;;;;;;;;;5127461;28;20042;-73
2022/10/16 06:31:33;;;;;;;1.95;0.73;;;;;;;;;;5127146;28;20046;-74
2022/10/16 06:34:05;;;;;;;1.83;0.70;;;;;;;;;;5127463;28;20054;-71
2022/10/16 06:36:35;;;;;;;0.80;0.50;;;;;;;;;;5126822;28;20054;-71
2022/10/16 06:39:07;;;;;;;1.88;0.40;;;;;;;;;;5127088;28;20059;-74
2022/10/16 06:41:37;;;;;;;5.65;0.60;;;;;;;;;;5130471;27;20050;-73
2022/10/16 06:44:16;;;;;;;1.58;0.60;;;;;;;;;;5129747;27;20058;-71
2022/10/16 06:46:46;;;;;;;3.58;0.50;;;;;;;;;;5130815;27;20039;-72
2022/10/16 06:49:21;;;;;;;1.15;0.50;;;;;;;;;;5130909;27;20039;-73
2022/10/16 06:51:51;;;;;;;0.77;0.63;;;;;;;;;;5131090;27;20105;-71
2022/10/16 06:54:20;;;;;;;2.17;0.52;;;;;;;;;;5131367;27;20043;-74
2022/10/16 06:56:53;;;;;;;2.03;0.75;;;;;;;;;;5131498;27;20688;-72
2022/10/16 06:59:25;;;;;;;2.58;0.47;;;;;;;;;;5130608;27;20039;-72
2022/10/16 07:01:55;;;;;;;1.63;0.50;;;;;;;;;;5130868;27;20047;-72
2022/10/16 07:04:24;;;;;;;1.15;0.73;;;;;;;;;;5130765;27;20050;-70
2022/10/16 07:06:54;;;;;;;3.42;0.90;;;;;;;;;;5131033;27;20043;-73
2022/10/16 07:09:24;;;;;;;1.48;0.77;;;;;;;;;;5131077;27;20065;-71
2022/10/16 07:11:54;;;;;;;2.03;0.85;;;;;;;;;;5130583;27;20489;-74
2022/10/16 07:14:24;;;;;;;2.22;0.52;;;;;;;;;;5130997;27;20051;-73
2022/10/16 07:16:54;;;;;;;0.98;0.52;;;;;;;;;;5130576;27;20062;-72
2022/10/16 07:19:25;;;;;;;3.05;0.73;;;;;;;;;;5130590;27;20043;-71
2022/10/16 07:21:59;;;;;;;4.03;0.85;;;;;;;;;;5130754;27;20050;-73
2022/10/16 07:24:29;;;;;;;2.45;0.60;;;;;;;;;;5129596;27;20054;-71
2022/10/16 07:26:59;;;;;;;1.23;0.52;;;;;;;;;;5130245;27;20054;-72
2022/10/16 07:29:28;;;;;;;1.92;0.70;;;;;;;;;;5130218;27;20051;-72
2022/10/16 07:31:58;;;;;;;1.45;0.80;;;;;;;;;;5130611;27;20055;-72
2022/10/16 07:34:28;;;;;;;7.40;0.90;;;;;;;;;;5130202;27;20054;-73
2022/10/16 07:36:58;;;;;;;1.58;0.60;;;;;;;;;;5130223;27;20039;-73
2022/10/16 07:39:28;;;;;;;2.35;0.77;;;;;;;;;;5129771;27;20055;-72
2022/10/16 07:41:57;;;;;;;2.72;0.60;;;;;;;;;;5130378;27;20524;-73
2022/10/16 07:44:27;;;;;;;4.88;0.60;;;;;;;;;;5130123;27;20511;-73
2022/10/16 07:46:57;;;;;;;;;;;;;;;;;;5130750;27;20047;-73
2022/10/16 07:49:27;;;;;;;3.60;0.90;;;;;;;;;;5130065;27;20287;-74
2022/10/16 07:51:57;;;;;;;2.05;0.68;;;;;;;;;;5129618;27;20039;-74
2022/10/16 07:54:26;;;;;;;2.78;0.80;;;;;;;;;;5130113;27;20789;-73
2022/10/16 07:56:56;;;;;;;3.42;1.13;;;;;;;;;;5127999;27;20058;-74
2022/10/16 07:59:26;;;;;;;6.30;1.00;;;;;;;;;;5129917;27;20394;-76
2022/10/16 08:01:56;;;;;;;7.97;1.27;;;;;;;;;;5128048;27;20539;-73
2022/10/16 08:04:26;;;;;;;5.68;1.40;;;;;;;;;;5130072;27;20042;-74
2022/10/16 08:06:55;;;;;;;5.70;1.30;;;;;;;;;;5129977;27;20047;-75
2022/10/16 08:09:25;;;;;;;6.38;1.55;;;;;;;;;;5129287;27;20047;-76
2022/10/16 08:11:55;;;;;;;7.85;1.10;;;;;;;;;;5129635;27;20051;-75
2022/10/16 08:14:30;;;;;;;3.72;1.40;;;;;;;;;;5128234;27;20047;-75
2022/10/16 08:17:01;;;;;;;7.38;1.35;;;;;;;;;;5129280;27;20050;-74
2022/10/16 08:19:34;;;;;;;2.90;1.15;;;;;;;;;;5129600;27;20051;-75
2022/10/16 08:22:04;;;;;;;5.07;1.35;;;;;;;;;;5129395;27;20043;-74
2022/10/16 08:24:34;;;;;;;6.55;1.98;;;;;;;;;;5128987;27;20043;-75
2022/10/16 08:27:04;;;;;;;3.53;1.92;;;;;;;;;;5129298;27;20054;-75
2022/10/16 08:29:34;;;;;;;6.38;1.83;;;;;;;;;;5129081;27;20051;-75
2022/10/16 08:32:04;;;;;;;6.85;1.77;;;;;;;;;;5128367;27;20062;-74
2022/10/16 08:34:34;;;;;;;5.38;1.48;;;;;;;;;;5127123;27;20051;-75
2022/10/16 08:37:04;;;;;;;7.78;1.90;;;;;;;;;;5128859;27;20047;-73
2022/10/16 08:39:33;;;;;;;;;;;;;;;;;;5129989;27;20047;-75
2022/10/16 08:42:27;;;;;;;4.15;1.95;;;;;;;;;;5128906;27;19923;-76
2022/10/16 08:45:22;;;;;;;4.82;2.72;;;;;;;;;;5129238;27;20058;-75
2022/10/16 08:48:01;;;;;;;8.10;3.58;;;;;;;;;;5129019;27;20035;-74
2022/10/16 08:50:35;;;;;;;10.85;3.65;;;;;;;;;;5126887;27;20061;-75
2022/10/16 08:53:06;;;;;;;9.10;3.15;;;;;;;;;;5128908;27;20619;-75
2022/10/16 08:55:53;;;;;;;5.97;3.28;;;;;;;;;;5128720;27;20505;-76
2022/10/16 08:58:28;;;;;;;9.25;3.58;;;;;;;;;;5128346;27;20406;-75
2022/10/16 09:01:04;;;;;;;4.32;2.88;;;;;;;;;;5128618;27;20043;-77
2022/10/16 09:03:52;;;;;;;8.07;3.58;;;;;;;;;;5128197;27;20043;-75
2022/10/16 09:06:38;;;;;;;7.88;3.65;;;;;;;;;;5126943;27;20501;-74
2022/10/16 09:09:20;;;;;;;5.35;3.03;;;;;;;;;;5128471;27;20523;-76
2022/10/16 09:12:02;;;;;;;7.05;3.30;;;;;;;;;;5128250;27;20055;-74
2022/10/16 09:14:50;;;;;;;4.82;2.70;;;;;;;;;;5128634;27;20043;-74
2022/10/16 09:17:38;;;;;;;4.53;1.85;;;;;;;;;;5128586;27;20039;-74
2022/10/16 09:20:11;;;;;;;3.63;1.40;;;;;;;;;;5128367;27;20055;-77
2022/10/16 09:22:42;;;;;;;7.50;2.17;;;;;;;;;;5126461;27;20119;-76
2022/10/16 09:25:20;;;;;;;2.90;2.08;;;;;;;;;;5127969;27;20154;-75
2022/10/16 09:27:53;;;;;;;3.13;1.55;;;;;;;;;;5128434;27;20508;-76
2022/10/16 09:30:32;;;;;;;3.88;1.73;;;;;;;;;;5128439;27;20043;-74
2022/10/16 09:33:03;;;;;;;2.95;1.27;;;;;;;;;;5128296;27;20417;-76
2022/10/16 09:35:38;;;;;;;4.22;2.00;;;;;;;;;;5127412;27;20039;-74
2022/10/16 09:38:20;;;;;;;4.82;1.77;;;;;;;;;;5128099;27;20502;-73
2022/10/16 09:40:50;;;;;;;3.25;1.20;;;;;;;;;;5127083;27;20401;-76
2022/10/16 09:43:38;;;;;;;2.13;1.40;;;;;;;;;;5127984;27;20043;-74
2022/10/16 09:46:22;;;;;;;2.15;1.08;;;;;;;;;;5127430;27;20057;-73
2022/10/16 09:48:56;;;;;;;2.33;1.38;;;;;;;;;;5127505;27;20054;-72
2022/10/16 09:51:32;;;;;;;4.70;1.70;;;;;;;;;;5127784;27;20042;-73
2022/10/16 09:54:16;;;;;;;6.22;1.52;;;;;;;;;;5128110;27;20054;-74
2022/10/16 09:56:49;;;;;;;3.33;1.42;;;;;;;;;;5125873;27;20422;-73
2022/10/16 09:59:23;;;;;;;4.20;1.67;;;;;;;;;;5127373;27;20058;-73
2022/10/16 10:01:55;;;;;;;5.28;1.40;;;;;;;;;;5127397;27;20050;-73
2022/10/16 10:04:27;;;;;;;3.38;1.17;;;;;;;;;;5126960;27;20039;-73
2022/10/16 10:06:58;;;;;;;6.90;1.40;;;;;;;;;;5127232;27;20406;-73
2022/10/16 10:09:39;;;;;;;3.35;1.58;;;;;;;;;;5127462;27;20501;-72
2022/10/16 10:12:27;;;;;;;5.68;1.55;;;;;;;;;;5126628;27;20046;-72
2022/10/16 10:15:04;;;;;;;7.60;1.55;;;;;;;;;;5125504;27;20048;-74
2022/10/16 10:17:34;;;;;;;;;;;;;;;;;;5127945;27;20039;-75
2022/10/16 10:20:24;;;;;;;3.63;0.98;;;;;;;;;;5127282;27;20344;-74
2022/10/16 10:22:55;;;;;;;1.88;1.05;;;;;;;;;;5126578;28;20054;-75
2022/10/16 10:25:49;;;;;;;2.15;0.95;;;;;;;;;;5127063;28;20055;-74
2022/10/16 10:28:27;;;;;;;1.92;1.10;;;;;;;;;;5127138;28;20047;-73
2022/10/16 10:31:24;;;;;;;2.58;1.38;;;;;;;;;;5126815;28;20078;-73
2022/10/16 10:34:06;;;;;;;3.20;1.38;;;;;;;;;;5127436;28;20417;-75
2022/10/16 10:36:41;;;;;;;4.78;1.35;;;;;;;;;;5127280;28;20043;-74
2022/10/16 10:39:14;;;;;;;3.95;1.00;;;;;;;;;;5127686;28;20501;-73
2022/10/16 10:41:56;;;;;;;2.67;1.20;;;;;;;;;;5127023;28;20039;-72
2022/10/16 10:44:55;;;;;;;2.42;0.90;;;;;;;;;;5127122;28;20043;-75
2022/10/16 10:48:14;;;;;;;2.63;0.85;;;;;;;;;;5127391;28;20062;-73
2022/10/16 10:51:05;;;;;;;1.58;1.23;;;;;;;;;;5125074;28;20051;-73
2022/10/16 10:53:47;;;;;;;2.83;0.90;;;;;;;;;;5127052;28;20413;-75
2022/10/16 10:56:26;;;;;;;2.08;1.30;;;;;;;;;;5126985;28;20069;-75
2022/10/16 10:59:17;;;;;;;0.98;0.88;;;;;;;;;;5127000;28;20482;-74
2022/10/16 11:01:56;;;;;;;1.35;0.82;;;;;;;;;;5127442;28;20389;-74
2022/10/16 11:04:53;;;;;;;4.80;1.10;;;;;;;;;;5126951;28;20047;-74
2022/10/16 11:07:33;;;;;;;0.88;0.65;;;;;;;;;;5127577;28;20047;-72
2022/10/16 11:10:13;;;;;;;0.90;0.60;;;;;;;;;;5125642;28;20062;-74
2022/10/16 11:12:52;;;;;;;0.85;0.60;;;;;;;;;;5126633;28;20039;-73
2022/10/16 11:15:33;;;;;;;1.08;0.60;;;;;;;;;;5126672;28;20047;-74
2022/10/16 11:18:07;;;;;;;1.95;0.70;;;;;;;;;;5126152;28;20047;-73
2022/10/16 11:21:02;;;;;;;1.50;0.65;;;;;;;;;;5126436;28;20386;-75
2022/10/16 11:23:50;;;;;;;1.15;0.55;;;;;;;;;;5126641;28;20043;-73
2022/10/16 11:26:21;;;;;;;;;;;;;;;;;;5128497;27;20149;-74
2022/10/16 11:28:58;;;;;;;3.78;0.70;;;;;;;;;;5131088;27;19923;-73
2022/10/16 11:31:49;;;;;;;2.13;0.80;;;;;;;;;;5130336;27;20055;-73
2022/10/16 11:34:25;;;;;;;2.20;1.02;;;;;;;;;;5130503;27;20409;-72
2022/10/16 11:36:58;;;;;;;2.58;0.70;;;;;;;;;;5130456;27;20055;-72
2022/10/16 11:39:30;;;;;;;3.45;0.75;;;;;;;;;;5129030;27;20047;-74
2022/10/16 11:42:00;;;;;;;2.10;0.40;;;;;;;;;;5128948;27;20416;-75
2022/10/16 11:44:42;;;;;;;1.45;0.63;;;;;;;;;;5130437;27;20491;-74
2022/10/16 11:47:33;;;;;;;0.45;0.40;;;;;;;;;;5130128;27;20039;-73
2022/10/16 11:50:41;;;;;;;2.95;0.65;;;;;;;;;;5129720;27;20047;-74
2022/10/16 11:53:31;;;;;;;0.90;0.50;;;;;;;;;;5128514;27;20047;-73
2022/10/16 11:56:02;;;;;;;0.75;0.47;;;;;;;;;;5129862;27;20531;-74
2022/10/16 11:58:47;;;;;;;0.98;0.50;;;;;;;;;;5130091;27;20550;-72
2022/10/16 12:01:43;;;;;;;1.88;0.50;;;;;;;;;;5129889;27;20047;-75
2022/10/16 12:04:45;;;;;;;0.28;0.28;;;;;;;;;;5122797;27;20059;-74
2022/10/16 12:07:27;;;;;;;2.30;0.43;;;;;;;;;;5129335;27;20043;-74
2022/10/16 12:10:00;;;;;;;0.75;0.30;;;;;;;;;;5129305;27;20047;-75
2022/10/16 12:12:36;;;;;;;0.40;0.30;;;;;;;;;;5129563;27;20051;-73
2022/10/16 12:15:25;;;;;;;0.30;0.20;;;;;;;;;;5129529;27;20047;-74
2022/10/16 12:18:25;;;;;;;3.30;0.70;;;;;;;;;;5129366;27;20055;-74
2022/10/16 12:21:04;;;;;;;2.45;0.22;;;;;;;;;;5129063;27;20048;-74
2022/10/16 12:23:47;;;;;;;2.35;0.60;;;;;;;;;;5129446;27;20043;-73
2022/10/16 12:26:44;;;;;;;1.05;0.30;;;;;;;;;;5129122;27;20062;-72
2022/10/16 12:29:34;;;;;;;0.98;0.28;;;;;;;;;;5129174;27;20481;-74
2022/10/16 12:32:07;;;;;;;2.40;0.47;;;;;;;;;;5129110;27;20520;-73
2022/10/16 12:34:44;;;;;;;1.55;0.40;;;;;;;;;;5129328;27;21120;-73
2022/10/16 12:37:27;;;;;;;0.65;0.30;;;;;;;;;;5128502;27;20039;-73
2022/10/16 12:39:58;;;;;;;0.38;0.20;;;;;;;;;;5127791;27;20413;-82
2022/10/16 12:42:29;;;;;;;0.30;0.20;;;;;;;;;;5129106;27;20055;-74
2022/10/16 12:44:59;;;;;;;0.73;0.20;;;;;;;;;;5128542;27;20043;-74
2022/10/16 12:47:34;;;;;;;0.30;0.28;;;;;;;;;;5128977;27;20420;-74
2022/10/16 12:50:23;;;;;;;2.33;0.30;;;;;;;;;;5127389;27;20051;-74
2022/10/16 12:52:53;;;;;;;0.57;0.50;;;;;;;;;;5127508;27;20551;-75
2022/10/16 12:55:24;;;;;;;0.73;0.40;;;;;;;;;;5128165;27;20421;-75
2022/10/16 12:58:09;;;;;;;1.90;0.40;;;;;;;;;;5129145;27;20494;-75
2022/10/16 13:00:50;;;;;;;0.77;0.50;;;;;;;;;;5126874;27;20160;-74
2022/10/16 13:03:46;;;;;;;0.82;0.45;;;;;;;;;;5128571;27;20047;-73
2022/10/16 13:06:39;;;;;;;6.00;0.95;;;;;;;;;;5128167;27;20050;-73
2022/10/16 13:09:22;;;;;;;2.78;0.50;;;;;;;;;;5128264;27;20055;-73
2022/10/16 13:12:28;;;;;;;1.63;0.22;;;;;;;;;;5128521;27;20066;-72
2022/10/16 13:15:38;;;;;;;0.55;0.40;;;;;;;;;;5127760;27;20047;-73
2022/10/16 13:18:36;;;;;;;0.50;0.40;;;;;;;;;;5099386;27;20063;-72
2022/10/16 13:21:18;;;;;;;1.98;0.40;;;;;;;;;;5118193;27;20074;-74
2022/10/16 13:24:10;;;;;;;1.85;0.73;;;;;;;;;;5127923;27;20035;-75
2022/10/16 13:26:55;;;;;;;0.45;0.28;;;;;;;;;;5128422;27;20520;-74
2022/10/16 13:29:33;;;;;;;1.70;0.40;;;;;;;;;;5128303;27;20151;-72
2022/10/16 13:32:11;;;;;;;1.20;0.50;;;;;;;;;;5128000;27;20047;-74
2022/10/16 13:34:47;;;;;;;1.67;0.60;;;;;;;;;;5127345;27;20039;-74
2022/10/16 13:37:22;;;;;;;0.50;0.40;;;;;;;;;;5126820;27;20413;-73
2022/10/16 13:40:17;;;;;;;0.60;0.43;;;;;;;;;;5127842;27;20058;-74
2022/10/16 13:42:47;;;;;;;0.40;0.40;;;;;;;;;;5127763;27;20043;-75
2022/10/16 13:45:25;;;;;;;1.05;0.70;;;;;;;;;;5127630;27;20047;-76
2022/10/16 13:48:06;;;;;;;4.88;0.80;;;;;;;;;;5127898;27;20043;-75
2022/10/16 13:50:36;;;;;;;2.22;0.95;;;;;;;;;;5126217;27;21107;-72
2022/10/16 13:53:14;;;;;;;3.97;0.63;;;;;;;;;;5127694;27;20039;-73
2022/10/16 13:55:44;;;;;;;0.93;0.63;;;;;;;;;;5125154;27;20039;-73
2022/10/16 13:58:15;;;;;;;3.08;0.65;;;;;;;;;;5122951;27;20426;-73
2022/10/16 14:01:00;;;;;;;3.00;0.65;;;;;;;;;;5126158;27;20493;-74
2022/10/16 14:03:32;;;;;;;1.23;0.65;;;;;;;;;;5129373;27;20850;-72
2022/10/16 14:06:06;;;;;;;5.65;0.90;;;;;;;;;;5132581;27;20046;-73
2022/10/16 14:08:36;;;;;;;2.05;0.90;;;;;;;;;;5127376;27;20050;-73
2022/10/16 14:11:06;;;;;;;2.28;1.60;;;;;;;;;;5124955;27;20047;-74
2022/10/16 14:13:44;;;;;;;3.25;0.90;;;;;;;;;;5122520;27;20051;-73
2022/10/16 14:16:23;;;;;;;3.33;1.20;;;;;;;;;;5127252;27;20070;-75
2022/10/16 14:19:00;;;;;;;1.27;0.80;;;;;;;;;;5125814;27;20054;-74
2022/10/16 14:21:31;;;;;;;1.30;1.05;;;;;;;;;;5127654;27;20047;-72
2022/10/16 14:24:34;;;;;;;1.20;0.70;;;;;;;;;;5128076;28;20043;-74
2022/10/16 14:27:32;;;;;;;11.57;1.45;;;;;;;;;;5114324;28;20429;-73
2022/10/16 14:30:22;;;;;;;2.17;1.10;;;;;;;;;;5126322;27;20059;-71
2022/10/16 14:33:03;;;;;;;0.63;0.60;;;;;;;;;;5127093;28;20058;-70
2022/10/16 14:35:40;;;;;;;2.30;1.50;;;;;;;;;;5126179;28;20728;-73
2022/10/16 14:38:19;;;;;;;0.70;0.70;;;;;;;;;;5127313;28;20047;-70
2022/10/16 14:40:50;;;;;;;2.58;1.10;;;;;;;;;;5126994;28;20490;-70
2022/10/16 14:43:29;;;;;;;4.20;1.20;;;;;;;;;;5126846;28;20152;-71
2022/10/16 14:46:00;;;;;;;4.75;1.30;;;;;;;;;;5126794;28;20046;-72
2022/10/16 14:48:30;;;;;;;1.10;0.80;;;;;;;;;;5126761;28;20544;-72
2022/10/16 14:51:00;;;;;;;4.70;0.90;;;;;;;;;;5127698;28;20429;-73
2022/10/16 14:53:30;;;;;;;0.70;0.70;;;;;;;;;;5127428;28;20405;-73
2022/10/16 14:56:07;;;;;;;2.15;0.90;;;;;;;;;;5126712;28;20059;-75
2022/10/16 14:58:37;;;;;;;2.70;0.93;;;;;;;;;;5127089;28;20043;-73
2022/10/16 15:01:10;;;;;;;1.85;0.82;;;;;;;;;;5127724;27;20043;-73
2022/10/16 15:03:41;;;;;;;1.70;1.00;;;;;;;;;;5129309;27;20047;-71
2022/10/16 15:06:13;;;;;;;1.30;0.65;;;;;;;;;;5129587;27;20058;-72
2022/10/16 15:08:44;;;;;;;1.02;0.93;;;;;;;;;;5128911;27;20046;-73
2022/10/16 15:11:19;;;;;;;1.52;1.00;;;;;;;;;;5127734;27;20067;-74
2022/10/16 15:13:49;;;;;;;3.00;1.10;;;;;;;;;;5129548;27;20420;-74
2022/10/16 15:16:19;;;;;;;1.35;0.95;;;;;;;;;;5127087;27;20043;-73
2022/10/16 15:18:52;;;;;;;3.05;1.17;;;;;;;;;;5130792;27;20051;-73
2022/10/16 15:21:29;;;;;;;0.85;0.80;;;;;;;;;;5130173;27;20039;-74
2022/10/16 15:24:00;;;;;;;1.77;0.85;;;;;;;;;;5130189;27;20058;-72
2022/10/16 15:26:30;;;;;;;3.97;1.23;;;;;;;;;;5130857;27;20054;-72
2022/10/16 15:29:00;;;;;;;1.33;1.05;;;;;;;;;;5130180;27;20051;-74
2022/10/16 15:31:33;;;;;;;1.30;1.05;;;;;;;;;;5127676;27;20892;-74
2022/10/16 15:34:04;;;;;;;1.95;1.00;;;;;;;;;;5128061;27;20051;-74